Abingdon, VA (24210)

2:09 PM EDT on August 28, 2016 (GMT -0400)
Country Club Estates | | Change Station

Elev 1990 ft 36.69 °N, 81.97 °W | Updated 4 seconds ago

Mostly Cloudy
Mostly Cloudy
87.2 °F
Feels Like 93 °F
N
8.1
Wind Variable Wind from East
Gusts 8.1 mph

Today
High -- | Low -- °F
--% Chance of Precip.
Yesterday
High -- | Low -- °F
Precip. -- in
Pressure 30.25 in
Visibility 10.0 miles
Clouds Mostly Cloudy 4200 ft
Heat Index 93 °F
Dew Point 72 °F
Humidity 60%
Rainfall 0.00 in
Snow Depth Not available.
6:56 AM 8:01 PM
Waning Crescent, 14% visible
METAR KVJI 281755Z AUTO 04003KT 10SM BKN042 32/20 A3025 RMK AO2 T03160201 10316 20244
Pressure 30.25 in
Visibility 10.0 miles
Clouds Mostly Cloudy 4200 ft
Heat Index 93 °F
Dew Point 72 °F
Humidity 60%
Rainfall 0.00 in
Snow Depth Not available.
6:56 AM 8:01 PM
Waning Crescent, 14% visible
METAR KVJI 281755Z AUTO 04003KT 10SM BKN042 32/20 A3025 RMK AO2 T03160201 10316 20244

10-Day Weather Forecast

Almanac

Astronomy

Aug. 28, 2016 Rise Set
Actual Time
Civil Twilight
Nautical Twilight
Astronomical Twilight
Moon
Length of Visible Light
Length of Day
Tomorrow will be .
, % of the Moon is Illuminated

Today's Extremes

State Highs State Lows

Community

WunderPhotos

Upload Photos

1,935,642 photos uploaded!

WunderBlog® & News

Nearby

Air Quality

  Air Quality AQ Index Pollutant
Not available.

Snow Depth

Station Depth Elevation

Earthquake Activity

City Distance Mag. Time & Date
Minimum magnitude displayed is 2.5.

Coastal Water Temperatures

Place Temperature

Stations

Nearby Weather Stations

Station Location Temp. Windchill Dew Point Humidity Wind Precip. Elev Updated Type
                   

Watches & Warnings

There are currently no watches in effect.